Time;durP1;ratioP1;P1;durP2;ratioP2;P2;SDS_P1;SDS_P2;PMS_P1;PMS_P2;Temp;Humidity;BMP_temperature;BMP_pressure;BME280_temperature;BME280_humidity;BME280_pressure;Samples;Min_cycle;Max_cycle;Signal;HPM_P1;HPM_P2
2022/09/11 00:03:58;;;;;;;2.03;1.10;;;13.60;99.90;;;;;;8286069;28;20029;-83
2022/09/11 00:07:58;;;;;;;3.63;0.90;;;13.60;99.90;;;;;;8275213;28;20022;-83
2022/09/11 00:11:59;;;;;;;2.22;1.25;;;13.50;99.90;;;;;;8283861;28;20029;-82
2022/09/11 00:16:01;;;;;;;2.58;0.98;;;13.40;99.90;;;;;;8279074;28;20054;-82
2022/09/11 00:20:03;;;;;;;3.90;1.45;;;13.40;99.90;;;;;;8259193;28;20026;-81
2022/09/11 00:24:04;;;;;;;3.33;1.52;;;13.40;99.90;;;;;;8256479;28;20033;-83
2022/09/11 00:28:06;;;;;;;4.13;1.10;;;13.40;99.90;;;;;;8255147;28;20027;-82
2022/09/11 00:32:06;;;;;;;4.07;1.10;;;13.40;99.90;;;;;;8253699;28;20105;-83
2022/09/11 00:36:12;;;;;;;2.20;0.93;;;13.40;99.90;;;;;;8253389;28;20033;-82
2022/09/11 00:40:14;;;;;;;3.15;1.10;;;13.50;99.90;;;;;;8252970;28;20081;-83
2022/09/11 00:44:17;;;;;;;1.38;1.00;;;13.60;99.90;;;;;;8253969;28;20026;-83
2022/09/11 00:48:21;;;;;;;3.30;1.48;;;13.60;99.90;;;;;;8278362;28;20023;-83
2022/09/11 00:52:26;;;;;;;2.08;1.30;;;13.50;99.90;;;;;;8281203;28;20029;-82
2022/09/11 00:56:30;;;;;;;2.33;1.25;;;13.60;99.90;;;;;;8273979;28;20053;-83
2022/09/11 01:00:30;;;;;;;3.30;1.15;;;13.40;99.90;;;;;;8272993;28;20018;-82
2022/09/11 01:04:31;;;;;;;1.65;1.10;;;13.40;99.90;;;;;;8276054;28;20026;-83
2022/09/11 01:08:31;;;;;;;2.50;1.20;;;13.30;99.90;;;;;;8272451;28;20030;-83
2022/09/11 01:12:56;;;;;;;2.13;1.25;;;13.20;99.90;;;;;;8254740;28;20030;-83
2022/09/11 01:17:30;;;;;;;2.88;1.63;;;13.20;99.90;;;;;;8269423;28;20022;-83
2022/09/11 01:21:43;;;;;;;3.17;1.58;;;13.20;99.90;;;;;;8275454;28;20034;-83
2022/09/11 01:25:46;;;;;;;5.28;1.58;;;13.20;99.90;;;;;;8280102;28;20114;-83
2022/09/11 01:29:57;;;;;;;2.53;1.48;;;13.20;99.90;;;;;;8282439;28;20113;-83
2022/09/11 01:34:01;;;;;;;;;;;13.10;99.90;;;;;;8245970;28;20463;-82
2022/09/11 01:38:06;;;;;;;6.20;1.98;;;13.20;99.90;;;;;;8247656;28;19905;-81
2022/09/11 01:42:13;;;;;;;3.22;1.52;;;13.20;99.90;;;;;;8268095;28;20030;-82
2022/09/11 01:46:21;;;;;;;2.65;1.70;;;13.20;99.90;;;;;;8248639;28;20488;-83
2022/09/11 01:50:23;;;;;;;2.75;1.70;;;13.20;99.90;;;;;;8244587;28;20038;-83
2022/09/11 01:54:28;;;;;;;6.43;1.83;;;13.10;99.90;;;;;;8250100;28;20019;-83
2022/09/11 01:58:35;;;;;;;4.30;1.73;;;13.10;99.90;;;;;;8247958;28;20026;-82
2022/09/11 02:02:41;;;;;;;4.03;1.58;;;13.20;99.90;;;;;;8244560;28;20040;-82
2022/09/11 02:06:55;;;;;;;4.30;1.75;;;13.20;99.90;;;;;;8262287;28;20025;-83
2022/09/11 02:11:05;;;;;;;5.00;1.73;;;13.20;99.90;;;;;;8264524;28;20030;-82
2022/09/11 02:15:07;;;;;;;4.28;1.88;;;13.20;99.90;;;;;;8244375;28;20112;-82
2022/09/11 02:19:13;;;;;;;3.88;1.77;;;13.30;99.90;;;;;;8262999;28;20110;-83
2022/09/11 02:23:15;;;;;;;3.00;1.50;;;13.20;99.90;;;;;;8244708;28;20029;-83
2022/09/11 02:27:26;;;;;;;2.33;1.40;;;13.20;99.90;;;;;;8266907;23;20140;-80
2022/09/11 02:31:27;;;;;;;;;;;13.20;99.90;;;;;;8368602;28;20043;-80
2022/09/11 02:35:37;;;;;;;3.90;1.77;;;13.20;99.90;;;;;;8373717;28;19904;-80
2022/09/11 02:40:18;;;;;;;4.38;1.58;;;13.20;99.90;;;;;;8362146;28;20108;-80
2022/09/11 02:44:48;;;;;;;2.00;1.35;;;13.20;99.90;;;;;;8346427;28;20513;-79
2022/09/11 02:49:16;;;;;;;1.75;1.40;;;13.10;99.90;;;;;;8332510;28;20060;-79
2022/09/11 02:53:42;;;;;;;1.75;1.45;;;13.20;99.90;;;;;;8339672;28;20017;-80
2022/09/11 02:58:04;;;;;;;3.92;1.40;;;13.30;99.90;;;;;;8322890;28;20032;-80
2022/09/11 03:02:11;;;;;;;2.25;1.40;;;13.30;99.90;;;;;;8344171;28;20017;-80
2022/09/11 03:06:18;;;;;;;2.45;1.20;;;13.20;99.90;;;;;;8327953;28;20117;-80
2022/09/11 03:10:19;;;;;;;3.20;1.40;;;13.20;99.90;;;;;;8314710;28;20017;-79
2022/09/11 03:14:19;;;;;;;3.88;1.45;;;13.20;99.90;;;;;;8337453;28;20402;-81
2022/09/11 03:18:20;;;;;;;3.97;1.60;;;13.30;99.90;;;;;;8342178;28;20029;-79
2022/09/11 03:22:20;;;;;;;5.13;1.60;;;13.30;99.90;;;;;;8352967;28;20037;-80
2022/09/11 03:26:21;;;;;;;1.98;1.35;;;13.20;99.90;;;;;;8346105;28;20024;-80
2022/09/11 03:30:22;;;;;;;2.75;1.50;;;13.20;99.90;;;;;;8345483;28;20025;-81
2022/09/11 03:34:22;;;;;;;2.03;1.50;;;13.20;99.90;;;;;;8347892;28;20090;-80
2022/09/11 03:38:23;;;;;;;2.60;1.33;;;13.30;99.90;;;;;;8350629;28;20029;-78
2022/09/11 03:42:23;;;;;;;2.38;1.17;;;13.40;99.90;;;;;;8350485;28;20478;-80
2022/09/11 03:46:24;;;;;;;2.60;1.55;;;13.40;99.90;;;;;;8353469;28;20056;-81
2022/09/11 03:50:25;;;;;;;1.83;1.27;;;13.50;99.90;;;;;;8331349;28;20091;-79
2022/09/11 03:54:26;;;;;;;3.10;1.30;;;13.30;99.90;;;;;;8327426;28;20045;-81
2022/09/11 03:58:27;;;;;;;2.00;1.20;;;13.30;99.90;;;;;;8335511;28;20013;-79
2022/09/11 04:02:28;;;;;;;2.15;1.27;;;13.30;99.90;;;;;;8359221;28;20158;-79
2022/09/11 04:06:28;;;;;;;2.38;1.10;;;13.40;99.90;;;;;;8340228;28;20028;-81
2022/09/11 04:10:31;;;;;;;2.95;1.35;;;13.30;99.90;;;;;;8361103;28;20036;-78
2022/09/11 04:14:32;;;;;;;3.30;1.20;;;13.30;99.90;;;;;;8349839;28;20041;-81
2022/09/11 04:18:35;;;;;;;2.15;1.00;;;13.30;99.90;;;;;;8331631;28;20025;-80
2022/09/11 04:22:35;;;;;;;2.05;1.40;;;13.30;99.90;;;;;;8337374;28;20076;-80
2022/09/11 04:26:36;;;;;;;2.33;1.42;;;13.20;99.90;;;;;;8361044;28;20638;-80
2022/09/11 04:30:37;;;;;;;2.55;1.05;;;13.20;99.90;;;;;;8357960;28;20029;-81
2022/09/11 04:34:38;;;;;;;2.17;1.17;;;13.30;99.90;;;;;;8357121;28;20018;-79
2022/09/11 04:38:39;;;;;;;3.10;1.30;;;13.40;99.90;;;;;;8350957;28;20407;-80
2022/09/11 04:42:40;;;;;;;4.80;1.63;;;13.40;99.90;;;;;;8351964;28;20032;-79
2022/09/11 04:46:41;;;;;;;7.32;3.70;;;13.30;99.90;;;;;;8332362;28;20024;-79
2022/09/11 04:50:43;;;;;;;3.60;2.13;;;13.20;99.90;;;;;;8357933;28;20387;-78
2022/09/11 04:54:45;;;;;;;3.28;1.50;;;13.10;99.90;;;;;;8345373;28;20017;-78
2022/09/11 04:58:46;;;;;;;2.53;1.30;;;13.00;99.90;;;;;;8343951;28;20513;-77
2022/09/11 05:02:46;;;;;;;7.53;1.63;;;13.00;99.90;;;;;;8322389;28;20029;-78
2022/09/11 05:06:47;;;;;;;4.43;1.92;;;13.00;99.90;;;;;;8336930;28;20075;-79
2022/09/11 05:10:48;;;;;;;3.75;1.50;;;12.90;99.90;;;;;;8333745;28;20032;-77
2022/09/11 05:14:50;;;;;;;3.08;1.70;;;12.90;99.90;;;;;;8319028;28;20032;-78
2022/09/11 05:18:51;;;;;;;3.40;1.77;;;13.00;99.90;;;;;;8331666;28;20029;-78
2022/09/11 05:22:52;;;;;;;2.55;1.70;;;12.90;99.90;;;;;;8345066;28;20028;-77
2022/09/11 05:26:52;;;;;;;5.53;3.05;;;12.90;99.90;;;;;;8316577;28;20025;-78
2022/09/11 05:30:54;;;;;;;1.55;1.13;;;12.90;99.90;;;;;;8324211;28;20028;-78
2022/09/11 05:34:55;;;;;;;4.70;1.50;;;13.00;99.90;;;;;;8326987;28;20017;-79
2022/09/11 05:38:56;;;;;;;3.20;1.42;;;13.20;99.90;;;;;;8325365;28;20018;-79
2022/09/11 05:42:57;;;;;;;3.35;1.92;;;13.20;99.90;;;;;;8326813;28;20029;-79
2022/09/11 05:46:57;;;;;;;2.15;1.52;;;13.30;99.90;;;;;;8325144;28;20036;-78
2022/09/11 05:51:00;;;;;;;3.33;1.50;;;13.40;99.90;;;;;;8342560;28;20044;-78
2022/09/11 05:55:00;;;;;;;2.92;1.40;;;13.60;99.90;;;;;;8332885;28;20104;-77
2022/09/11 05:59:01;;;;;;;1.65;1.33;;;13.60;99.90;;;;;;8313888;28;20026;-80
2022/09/11 06:03:02;;;;;;;1.85;1.52;;;13.60;99.90;;;;;;8340105;28;20550;-79
2022/09/11 06:07:02;;;;;;;6.22;1.60;;;13.70;99.90;;;;;;8345014;28;20029;-80
2022/09/11 06:11:08;;;;;;;2.53;1.40;;;13.60;99.90;;;;;;8338095;28;20392;-78
2022/09/11 06:15:09;;;;;;;2.50;1.50;;;13.60;99.90;;;;;;8336821;28;20021;-78
2022/09/11 06:19:09;;;;;;;2.28;1.50;;;13.70;99.90;;;;;;8341552;28;20040;-78
2022/09/11 06:23:10;;;;;;;2.45;1.38;;;14.00;99.90;;;;;;8325760;28;20033;-79
2022/09/11 06:27:11;;;;;;;3.42;1.13;;;14.30;99.90;;;;;;8329567;28;20056;-79
2022/09/11 06:31:17;;;;;;;3.15;1.65;;;14.50;99.90;;;;;;8325956;28;20032;-80
2022/09/11 06:35:17;;;;;;;2.67;1.30;;;14.70;99.90;;;;;;8330021;28;20021;-80
2022/09/11 06:39:21;;;;;;;1.73;1.00;;;14.90;99.90;;;;;;8342731;28;20467;-78
2022/09/11 06:43:22;;;;;;;1.77;1.10;;;14.90;99.90;;;;;;8351842;28;20017;-80
2022/09/11 06:47:22;;;;;;;1.27;1.17;;;15.00;99.90;;;;;;8332932;28;20025;-80
2022/09/11 06:51:23;;;;;;;2.72;1.20;;;15.10;99.90;;;;;;8344358;28;20078;-80
2022/09/11 06:55:24;;;;;;;1.30;1.02;;;15.30;99.90;;;;;;8336968;28;20048;-80
2022/09/11 06:59:24;;;;;;;8.27;1.80;;;15.20;99.90;;;;;;8324448;28;20505;-80
2022/09/11 07:03:26;;;;;;;1.85;1.00;;;15.40;99.90;;;;;;8322301;28;20048;-80
2022/09/11 07:07:26;;;;;;;1.90;1.15;;;15.90;99.90;;;;;;8318683;28;20025;-79
2022/09/11 07:11:31;;;;;;;1.88;1.05;;;16.10;99.90;;;;;;8345071;28;20422;-81
2022/09/11 07:15:31;;;;;;;2.28;1.05;;;16.20;99.90;;;;;;8321779;28;20017;-81
2022/09/11 07:19:32;;;;;;;2.60;1.17;;;16.20;99.90;;;;;;8326106;28;20041;-81
2022/09/11 07:23:34;;;;;;;1.60;1.05;;;16.30;99.90;;;;;;8347947;28;20029;-79
2022/09/11 07:27:34;;;;;;;3.13;1.30;;;16.40;99.90;;;;;;8341253;28;20063;-79
2022/09/11 07:31:37;;;;;;;3.10;1.13;;;16.40;99.90;;;;;;8322967;28;20029;-79
2022/09/11 07:35:38;;;;;;;4.22;1.15;;;16.60;99.90;;;;;;8355787;28;20041;-81
2022/09/11 07:39:39;;;;;;;3.47;1.30;;;16.80;99.90;;;;;;8333485;28;20036;-80
2022/09/11 07:43:40;;;;;;;4.30;1.33;;;16.80;99.90;;;;;;8343228;28;20025;-81
2022/09/11 07:47:41;;;;;;;2.85;1.35;;;16.50;99.90;;;;;;8344139;28;20037;-79
2022/09/11 07:51:42;;;;;;;2.05;0.95;;;16.10;99.90;;;;;;8331503;28;20024;-80
2022/09/11 07:55:42;;;;;;;3.22;1.52;;;16.10;99.90;;;;;;8344462;28;20109;-81
2022/09/11 07:59:45;;;;;;;2.55;1.30;;;16.50;99.90;;;;;;8344546;28;20025;-81
2022/09/11 08:03:46;;;;;;;1.95;1.67;;;17.20;99.90;;;;;;8354885;28;20060;-79
2022/09/11 08:07:46;;;;;;;1.30;1.20;;;16.80;99.90;;;;;;8342473;28;20029;-80
2022/09/11 08:11:47;;;;;;;4.00;1.83;;;17.10;99.90;;;;;;8319199;28;20022;-80
2022/09/11 08:15:49;;;;;;;2.13;1.50;;;17.80;99.90;;;;;;8341733;28;20047;-79
2022/09/11 08:19:50;;;;;;;4.43;1.30;;;18.40;99.90;;;;;;8316606;28;20025;-80
2022/09/11 08:23:51;;;;;;;2.95;1.30;;;18.60;99.90;;;;;;8322989;28;20057;-79
2022/09/11 08:27:52;;;;;;;1.90;1.33;;;18.30;99.90;;;;;;8319304;28;20029;-79
2022/09/11 08:31:52;;;;;;;1.50;1.23;;;18.20;99.90;;;;;;8317600;28;20028;-81
2022/09/11 08:35:53;;;;;;;1.38;1.17;;;18.40;99.90;;;;;;8339565;28;20025;-81
2022/09/11 08:39:54;;;;;;;1.98;1.20;;;18.60;99.90;;;;;;8314658;28;20103;-80
2022/09/11 08:44:16;;;;;;;2.40;1.20;;;19.10;99.90;;;;;;8322990;28;20033;-81
2022/09/11 08:48:24;;;;;;;2.35;1.50;;;19.50;99.90;;;;;;8333584;28;20021;-80
2022/09/11 08:52:24;;;;;;;2.72;1.50;;;19.10;99.90;;;;;;8316865;28;20083;-80
2022/09/11 08:56:28;;;;;;;3.13;1.40;;;18.90;99.90;;;;;;8317768;28;20017;-81
2022/09/11 09:00:47;;;;;;;1.23;1.10;;;18.70;99.90;;;;;;8339145;28;20372;-81
2022/09/11 09:05:01;;;;;;;1.83;1.25;;;19.00;99.90;;;;;;8336802;28;20025;-80
2022/09/11 09:09:21;;;;;;;2.33;1.33;;;18.70;99.90;;;;;;8334327;28;20029;-82
2022/09/11 09:13:27;;;;;;;3.17;1.35;;;18.80;99.90;;;;;;8323316;28;20497;-80
2022/09/11 09:17:40;;;;;;;1.17;0.85;;;19.20;99.90;;;;;;8336722;28;20073;-80
2022/09/11 09:21:44;;;;;;;2.75;1.30;;;19.40;99.90;;;;;;8338948;28;20056;-81
2022/09/11 09:25:45;;;;;;;3.88;1.17;;;19.60;99.90;;;;;;8326262;28;20627;-81
2022/09/11 09:29:51;;;;;;;3.17;1.58;;;20.00;99.90;;;;;;8322432;28;20025;-79
2022/09/11 09:33:59;;;;;;;2.95;1.65;;;20.30;99.90;;;;;;8336548;28;20403;-80
2022/09/11 09:37:59;;;;;;;3.13;1.75;;;20.90;99.90;;;;;;8309462;28;20488;-80
2022/09/11 09:42:37;;;;;;;3.70;1.52;;;21.30;99.90;;;;;;8327425;28;20040;-81
2022/09/11 09:46:43;;;;;;;5.68;1.42;;;20.60;99.90;;;;;;8319502;28;20029;-81
2022/09/11 09:50:44;;;;;;;1.45;1.30;;;20.40;99.90;;;;;;8318560;28;20052;-81
2022/09/11 09:54:55;;;;;;;2.28;1.40;;;20.60;99.90;;;;;;8313866;28;20029;-81
2022/09/11 09:59:28;;;;;;;5.78;1.98;;;20.30;99.90;;;;;;8314371;28;20021;-80
2022/09/11 10:03:30;;;;;;;2.38;1.67;;;19.70;99.90;;;;;;8327873;28;20071;-81
2022/09/11 10:07:31;;;;;;;3.25;1.67;;;20.30;99.90;;;;;;8352272;28;20528;-80
2022/09/11 10:11:32;;;;;;;4.95;1.95;;;20.90;99.90;;;;;;8317621;28;20020;-81
2022/09/11 10:15:37;;;;;;;2.45;1.92;;;21.10;99.90;;;;;;8310998;28;20052;-81
2022/09/11 10:19:39;;;;;;;2.90;1.60;;;21.50;99.90;;;;;;8333070;28;20032;-81
2022/09/11 10:24:01;;;;;;;1.98;1.65;;;21.80;99.90;;;;;;8334061;28;20034;-81
2022/09/11 10:28:09;;;;;;;1.70;1.52;;;21.20;99.90;;;;;;8353737;28;20395;-80
2022/09/11 10:32:16;;;;;;;3.20;2.17;;;21.00;99.90;;;;;;8347706;28;20013;-80
2022/09/11 10:36:22;;;;;;;2.22;2.03;;;21.20;99.90;;;;;;8327254;28;20303;-80
2022/09/11 10:40:23;;;;;;;2.22;2.03;;;21.40;99.90;;;;;;8335148;28;20025;-81
2022/09/11 10:44:26;;;;;;;2.08;1.67;;;21.90;99.90;;;;;;8333729;28;20561;-79
2022/09/11 10:48:27;;;;;;;1.73;1.63;;;21.90;99.90;;;;;;8343814;28;20029;-81
2022/09/11 10:52:28;;;;;;;1.95;1.70;;;21.10;99.90;;;;;;8340760;28;20606;-81
2022/09/11 10:56:32;;;;;;;3.05;1.80;;;20.60;99.90;;;;;;8331013;28;20044;-80
2022/09/11 11:00:34;;;;;;;2.00;1.80;;;20.30;99.90;;;;;;8327827;28;20555;-80
2022/09/11 11:04:35;;;;;;;3.15;1.65;;;20.50;99.90;;;;;;8339472;28;20032;-80
2022/09/11 11:08:56;;;;;;;2.20;1.88;;;20.70;99.90;;;;;;8339077;28;20073;-79
2022/09/11 11:13:04;;;;;;;;;;;21.50;99.90;;;;;;8345861;28;20085;-80
2022/09/11 11:17:31;;;;;;;3.08;1.83;;;21.60;99.90;;;;;;8342988;28;19940;-81
2022/09/11 11:21:50;;;;;;;3.05;1.42;;;21.10;99.90;;;;;;8333909;28;20025;-78
2022/09/11 11:26:17;;;;;;;3.00;1.63;;;20.80;99.90;;;;;;8330629;28;20410;-80
2022/09/11 11:30:39;;;;;;;3.45;1.50;;;21.30;99.90;;;;;;8335504;28;20079;-80
2022/09/11 11:35:11;;;;;;;1.73;1.30;;;21.60;99.90;;;;;;8342386;28;20464;-79
2022/09/11 11:39:23;;;;;;;;;;;21.20;99.90;;;;;;8315502;28;20116;-80
2022/09/11 11:43:28;;;;;;;2.35;1.88;;;21.30;99.90;;;;;;8335043;28;20371;-81
2022/09/11 11:47:41;;;;;;;3.38;2.10;;;21.40;99.90;;;;;;8320049;28;20021;-80
2022/09/11 11:52:11;;;;;;;2.90;1.70;;;21.20;99.90;;;;;;8320257;28;20039;-81
2022/09/11 11:56:32;;;;;;;2.00;1.50;;;21.00;99.90;;;;;;8327549;28;20022;-80
2022/09/11 12:00:40;;;;;;;2.80;1.63;;;20.80;99.90;;;;;;8331489;28;20072;-80
2022/09/11 12:05:01;;;;;;;1.70;1.33;;;20.80;99.90;;;;;;8328075;28;20052;-81
2022/09/11 12:09:04;;;;;;;1.60;1.50;;;20.80;99.90;;;;;;8335164;28;20116;-80
2022/09/11 12:13:14;;;;;;;1.85;1.40;;;20.90;99.90;;;;;;8320688;28;20025;-79
2022/09/11 12:17:24;;;;;;;1.50;1.40;;;21.50;99.90;;;;;;8323916;28;20021;-78
2022/09/11 12:21:24;;;;;;;2.47;1.88;;;21.70;99.90;;;;;;8335802;28;20021;-79
2022/09/11 12:25:31;;;;;;;1.65;1.55;;;21.80;99.90;;;;;;8323014;28;20412;-80
2022/09/11 12:29:55;;;;;;;2.40;1.80;;;21.60;99.90;;;;;;8340808;28;20088;-79
2022/09/11 12:33:56;;;;;;;2.28;1.60;;;21.50;99.90;;;;;;8320178;28;20113;-80
2022/09/11 12:38:09;;;;;;;3.00;1.90;;;21.80;99.90;;;;;;8340753;28;20026;-80
2022/09/11 12:42:21;;;;;;;4.20;1.80;;;21.90;99.90;;;;;;8328013;28;20075;-79
2022/09/11 12:46:23;;;;;;;1.80;1.60;;;22.40;99.90;;;;;;8336483;28;20029;-80
2022/09/11 12:50:26;;;;;;;1.40;1.30;;;23.00;99.90;;;;;;8340619;28;20509;-80
2022/09/11 12:54:32;;;;;;;3.10;1.10;;;23.60;99.90;;;;;;8343287;28;20552;-80
2022/09/11 12:58:43;;;;;;;2.13;1.67;;;24.10;99.90;;;;;;8322879;28;20498;-79
2022/09/11 13:02:50;;;;;;;2.10;1.80;;;24.40;99.90;;;;;;8311714;28;20374;-81
2022/09/11 13:06:55;;;;;;;2.40;1.80;;;24.40;99.90;;;;;;8330375;28;20031;-81
2022/09/11 13:11:34;;;;;;;2.10;1.90;;;24.80;99.90;;;;;;8323672;28;20060;-79
2022/09/11 13:15:40;;;;;;;3.15;2.55;;;24.20;99.90;;;;;;8319833;28;20535;-78
2022/09/11 13:19:41;;;;;;;2.53;2.10;;;23.60;99.90;;;;;;8324440;28;20620;-80
2022/09/11 13:23:42;;;;;;;2.58;2.38;;;23.10;99.90;;;;;;8307856;28;20022;-80
2022/09/11 13:27:49;;;;;;;2.97;2.50;;;22.40;99.90;;;;;;8318566;28;20033;-80
2022/09/11 13:31:50;;;;;;;2.63;2.42;;;21.90;99.90;;;;;;8312649;28;20112;-80
2022/09/11 13:35:56;;;;;;;3.22;2.60;;;21.50;99.90;;;;;;8317232;28;20024;-80
2022/09/11 13:39:58;;;;;;;3.10;2.80;;;21.20;99.90;;;;;;8336276;28;20029;-80
2022/09/11 13:44:00;;;;;;;3.47;2.80;;;21.00;99.90;;;;;;8340723;28;20071;-80
2022/09/11 13:48:00;;;;;;;5.07;2.90;;;21.00;99.90;;;;;;8331787;28;20049;-81
2022/09/11 13:52:07;;;;;;;3.50;2.45;;;21.40;99.90;;;;;;8317948;28;20033;-81
2022/09/11 13:56:40;;;;;;;3.13;2.83;;;21.40;99.90;;;;;;8317656;28;20056;-81
2022/09/11 14:00:46;;;;;;;3.15;2.42;;;21.30;99.90;;;;;;8330822;28;20047;-81
2022/09/11 14:04:51;;;;;;;2.70;2.50;;;23.50;99.90;;;;;;8333521;28;20482;-81
2022/09/11 14:08:54;;;;;;;3.10;2.30;;;27.50;99.90;;;;;;8331859;28;20029;-82
2022/09/11 14:13:31;;;;;;;3.45;2.10;;;30.70;98.10;;;;;;8327789;28;20487;-82
2022/09/11 14:17:32;;;;;;;2.10;1.90;;;32.40;84.50;;;;;;8317437;28;20021;-83
2022/09/11 14:21:39;;;;;;;2.03;1.83;;;33.00;79.70;;;;;;8318399;28;20120;-82
2022/09/11 14:26:02;;;;;;;2.17;1.95;;;32.10;76.10;;;;;;8334359;28;20040;-81
2022/09/11 14:30:42;;;;;;;2.85;2.13;;;29.10;86.90;;;;;;8326459;28;20063;-81
2022/09/11 14:34:42;;;;;;;2.10;1.90;;;26.70;90.70;;;;;;8319697;28;20163;-81
2022/09/11 14:38:43;;;;;;;2.40;2.20;;;24.70;94.40;;;;;;8345161;28;20021;-81
2022/09/11 14:42:44;;;;;;;2.20;1.80;;;25.50;96.90;;;;;;8325842;28;20061;-81
2022/09/11 14:46:45;;;;;;;2.33;1.95;;;26.00;96.10;;;;;;8322402;28;20028;-81
2022/09/11 14:50:46;;;;;;;2.60;1.90;;;25.80;94.70;;;;;;8357464;22;20135;-83
2022/09/11 14:54:47;;;;;;;2.30;2.10;;;27.70;91.70;;;;;;8320918;28;20021;-84
2022/09/11 14:58:47;;;;;;;2.67;2.10;;;25.00;94.80;;;;;;8340516;28;20117;-82
2022/09/11 15:02:48;;;;;;;2.45;2.25;;;22.50;99.90;;;;;;8315268;28;20021;-83
2022/09/11 15:06:54;;;;;;;2.83;2.50;;;21.20;99.90;;;;;;8332452;28;20074;-82
2022/09/11 15:10:54;;;;;;;2.42;2.22;;;20.60;99.90;;;;;;8321121;28;20076;-81
2022/09/11 15:14:56;;;;;;;2.35;2.15;;;20.40;99.90;;;;;;8341023;28;20615;-82
2022/09/11 15:18:57;;;;;;;3.15;2.50;;;20.00;99.90;;;;;;8318221;28;20071;-83
2022/09/11 15:22:57;;;;;;;2.53;2.33;;;19.90;99.90;;;;;;8318082;28;20025;-82
2022/09/11 15:26:58;;;;;;;2.97;2.50;;;19.80;99.90;;;;;;8328233;28;20031;-83
2022/09/11 15:30:59;;;;;;;3.28;2.90;;;19.90;99.90;;;;;;8338822;28;20487;-82
2022/09/11 15:34:59;;;;;;;3.20;2.90;;;19.70;99.90;;;;;;8330171;28;20502;-81
2022/09/11 15:39:02;;;;;;;2.53;2.33;;;19.40;99.90;;;;;;8320353;28;20076;-83
2022/09/11 15:43:02;;;;;;;2.97;2.40;;;19.00;99.90;;;;;;8330321;28;20029;-82
2022/09/11 15:47:03;;;;;;;3.97;2.50;;;18.70;99.90;;;;;;8349061;28;20037;-82
2022/09/11 15:51:05;;;;;;;3.15;2.85;;;18.90;99.90;;;;;;8349063;28;20695;-83
2022/09/11 15:55:06;;;;;;;2.53;2.33;;;18.90;99.90;;;;;;8351485;28;20023;-82
2022/09/11 15:59:09;;;;;;;2.88;2.58;;;18.80;99.90;;;;;;8331877;28;20029;-82
2022/09/11 16:03:10;;;;;;;3.20;2.90;;;18.80;99.90;;;;;;8332572;28;20025;-81
2022/09/11 16:07:11;;;;;;;2.67;2.40;;;19.10;99.90;;;;;;8341128;28;20032;-82
2022/09/11 16:11:13;;;;;;;3.47;2.50;;;19.10;99.90;;;;;;8331572;28;20123;-82
2022/09/11 16:15:13;;;;;;;3.13;2.83;;;19.10;99.90;;;;;;8319906;28;20026;-82
2022/09/11 16:19:17;;;;;;;2.80;2.42;;;19.10;99.90;;;;;;8348700;28;20498;-82
2022/09/11 16:23:18;;;;;;;2.95;2.65;;;19.20;99.90;;;;;;8345046;28;20033;-81
2022/09/11 16:27:18;;;;;;;3.15;2.85;;;19.10;99.90;;;;;;8341205;28;20060;-81
2022/09/11 16:31:19;;;;;;;2.90;2.60;;;19.00;99.90;;;;;;8335066;28;20384;-81
2022/09/11 16:35:20;;;;;;;3.05;2.75;;;18.90;99.90;;;;;;8341141;28;20458;-81
2022/09/11 16:39:20;;;;;;;3.53;2.53;;;18.80;99.90;;;;;;8340846;28;20620;-81
2022/09/11 16:43:21;;;;;;;4.65;3.20;;;18.60;99.90;;;;;;8342527;28;20026;-82
2022/09/11 16:47:22;;;;;;;3.03;2.72;;;18.50;99.90;;;;;;8352809;28;20024;-82
2022/09/11 16:51:22;;;;;;;3.33;2.90;;;18.30;99.90;;;;;;8319372;28;20112;-82
2022/09/11 16:55:24;;;;;;;3.85;3.15;;;18.10;99.90;;;;;;8338941;28;20021;-81
2022/09/11 16:59:25;;;;;;;6.93;3.30;;;17.80;99.90;;;;;;8325822;28;20018;-82
2022/09/11 17:03:25;;;;;;;4.93;3.67;;;17.40;99.90;;;;;;8330348;28;20411;-82
2022/09/11 17:07:26;;;;;;;3.88;3.47;;;17.00;99.90;;;;;;8324375;28;20112;-82
2022/09/11 17:11:28;;;;;;;3.90;3.40;;;16.60;99.90;;;;;;8326794;28;20017;-81
2022/09/11 17:15:33;;;;;;;4.22;3.60;;;16.50;99.90;;;;;;8318481;28;20025;-83
2022/09/11 17:19:33;;;;;;;5.55;3.63;;;16.40;99.90;;;;;;8339080;28;20032;-83
2022/09/11 17:23:35;;;;;;;5.13;3.63;;;16.30;99.90;;;;;;8317733;28;20033;-83
2022/09/11 17:27:36;;;;;;;4.88;3.78;;;16.30;99.90;;;;;;8319400;28;20044;-83
2022/09/11 17:31:36;;;;;;;6.93;4.20;;;16.10;99.90;;;;;;8322693;28;20033;-82
2022/09/11 17:35:38;;;;;;;5.53;4.55;;;15.80;99.90;;;;;;8322669;28;20630;-83
2022/09/11 17:39:40;;;;;;;6.07;5.10;;;15.20;99.90;;;;;;8318289;28;20108;-83
2022/09/11 17:43:41;;;;;;;5.82;4.75;;;14.80;99.90;;;;;;8319123;28;20030;-83
2022/09/11 17:47:42;;;;;;;5.68;4.95;;;14.90;99.90;;;;;;8320352;28;20033;-83
2022/09/11 17:51:42;;;;;;;6.38;5.07;;;14.90;99.90;;;;;;8341990;28;20128;-83
2022/09/11 17:55:45;;;;;;;5.15;4.65;;;14.80;99.90;;;;;;8330484;28;20481;-83
2022/09/11 17:59:49;;;;;;;7.03;4.40;;;14.40;99.90;;;;;;8316726;28;20521;-83
2022/09/11 18:03:51;;;;;;;5.93;4.70;;;14.30;99.90;;;;;;8330611;28;20211;-83
2022/09/11 18:07:52;;;;;;;6.28;4.85;;;14.00;99.90;;;;;;8318145;28;20061;-83
2022/09/11 18:11:53;;;;;;;6.80;4.80;;;13.90;99.90;;;;;;8326368;28;20018;-83
2022/09/11 18:15:54;;;;;;;6.53;5.18;;;13.80;99.90;;;;;;8334288;28;20617;-83
2022/09/11 18:19:55;;;;;;;6.82;4.97;;;13.60;99.90;;;;;;8328434;28;20029;-81
2022/09/11 18:23:56;;;;;;;6.00;4.88;;;13.40;99.90;;;;;;8329175;28;20029;-83
2022/09/11 18:27:58;;;;;;;6.65;5.60;;;13.40;99.90;;;;;;8338519;28;20029;-83
2022/09/11 18:31:58;;;;;;;6.82;5.28;;;13.40;99.90;;;;;;8325819;28;20067;-83
2022/09/11 18:36:12;;;;;;;7.20;5.25;;;13.30;99.90;;;;;;8336279;28;20384;-83
2022/09/11 18:40:12;;;;;;;7.25;5.25;;;13.10;99.90;;;;;;8345183;28;20029;-82
2022/09/11 18:44:16;;;;;;;5.80;5.07;;;13.00;99.90;;;;;;8324640;28;20020;-83
2022/09/11 18:48:17;;;;;;;5.45;4.35;;;12.80;99.90;;;;;;8342261;28;20036;-83
2022/09/11 18:52:17;;;;;;;6.28;5.10;;;12.60;99.90;;;;;;8323524;28;20029;-83
2022/09/11 18:56:20;;;;;;;6.43;4.93;;;12.40;99.90;;;;;;8337325;28;20100;-83
2022/09/11 19:00:21;;;;;;;5.50;5.00;;;12.40;99.90;;;;;;8330259;28;20044;-83
2022/09/11 19:04:23;;;;;;;7.13;5.15;;;12.40;99.90;;;;;;8318374;28;20026;-82
2022/09/11 19:08:23;;;;;;;6.57;4.75;;;12.40;99.90;;;;;;8331916;28;20116;-83
2022/09/11 19:12:25;;;;;;;6.07;4.57;;;12.60;99.90;;;;;;8337838;28;20021;-83
2022/09/11 19:16:25;;;;;;;8.60;5.00;;;12.50;99.90;;;;;;8328434;28;20022;-83
2022/09/11 19:20:26;;;;;;;6.57;4.68;;;12.50;99.90;;;;;;8336482;28;20223;-83
2022/09/11 19:24:28;;;;;;;6.10;5.03;;;12.30;99.90;;;;;;8336340;28;20025;-81
2022/09/11 19:28:30;;;;;;;6.18;4.50;;;12.20;99.90;;;;;;8335533;28;20071;-83
2022/09/11 19:32:32;;;;;;;4.95;4.22;;;12.00;99.90;;;;;;8332826;28;20021;-82
2022/09/11 19:36:34;;;;;;;5.95;4.65;;;11.80;99.90;;;;;;8350799;28;20506;-83
2022/09/11 19:40:35;;;;;;;5.95;4.63;;;11.70;99.90;;;;;;8330013;28;20037;-83
2022/09/11 19:44:36;;;;;;;11.45;5.28;;;11.70;99.90;;;;;;8337469;28;20594;-82
2022/09/11 19:48:36;;;;;;;5.78;4.75;;;11.60;99.90;;;;;;8349373;28;20029;-82
2022/09/11 19:52:37;;;;;;;5.78;5.00;;;11.40;99.90;;;;;;8330380;28;20033;-83
2022/09/11 19:56:39;;;;;;;8.52;4.63;;;11.30;99.90;;;;;;8350648;28;20032;-82
2022/09/11 20:00:39;;;;;;;6.00;4.35;;;11.20;99.90;;;;;;8340381;28;20021;-82
2022/09/11 20:04:40;;;;;;;8.57;4.65;;;11.20;99.90;;;;;;8342338;28;20043;-83
2022/09/11 20:08:42;;;;;;;6.35;4.82;;;11.20;99.90;;;;;;8340302;28;20036;-83
2022/09/11 20:12:43;;;;;;;12.95;5.75;;;11.20;99.90;;;;;;8360866;28;20386;-82
2022/09/11 20:16:43;;;;;;;6.78;5.43;;;11.20;99.90;;;;;;8363594;28;20017;-83
2022/09/11 20:20:44;;;;;;;6.40;5.22;;;11.20;99.90;;;;;;8317266;28;20399;-82
2022/09/11 20:24:44;;;;;;;7.47;5.28;;;11.20;99.90;;;;;;8330924;28;20028;-83
2022/09/11 20:28:47;;;;;;;8.48;4.53;;;11.30;99.90;;;;;;8330330;28;20040;-82
2022/09/11 20:32:47;;;;;;;6.40;4.88;;;11.20;99.90;;;;;;8341030;28;20021;-83
2022/09/11 20:36:48;;;;;;;8.20;5.80;;;10.90;99.90;;;;;;8340438;28;20044;-82
2022/09/11 20:40:48;;;;;;;7.18;5.18;;;10.70;99.90;;;;;;8358002;28;20029;-82
2022/09/11 20:44:49;;;;;;;7.63;5.38;;;10.80;99.90;;;;;;8323776;28;20053;-80
2022/09/11 20:48:51;;;;;;;9.38;5.60;;;10.60;99.90;;;;;;8336658;28;20491;-82
2022/09/11 20:52:52;;;;;;;10.77;5.93;;;10.40;99.90;;;;;;8365571;22;20689;-81
2022/09/11 20:56:52;;;;;;;8.80;5.82;;;10.50;99.90;;;;;;8336047;28;20111;-81
2022/09/11 21:00:53;;;;;;;9.25;5.68;;;10.50;99.90;;;;;;8325381;28;20025;-80
2022/09/11 21:04:53;;;;;;;8.25;5.20;;;10.50;99.90;;;;;;8345524;28;20108;-81
2022/09/11 21:08:57;;;;;;;9.00;5.35;;;10.40;99.90;;;;;;8325749;28;20037;-81
2022/09/11 21:12:57;;;;;;;7.78;5.47;;;10.30;99.90;;;;;;8331300;28;20468;-81
2022/09/11 21:16:58;;;;;;;7.22;5.18;;;10.20;99.90;;;;;;8331648;28;20023;-81